ADDS METAR Data INFO
IDs: Format: Raw Decoded Include TAF

Data at: 0923 UTC 13 Dec 2017

KATP 130915Z AUTO 35006KT 10SM BKN039 18/09 A3013 RMK A01
KATP 130855Z AUTO 33011KT 9SM OVC038 18/09 A3012 RMK A01
KATP 130835Z AUTO 33011KT 10SM BKN038 18/09 A3013 RMK A01
KATP 130815Z AUTO 02011KT 10SM 17/09 A3012 RMK A01
KATP 130755Z AUTO 33009KT 10SM 17/09 A3013 RMK A01
KATP 130735Z AUTO 35009KT 10SM 17/09 A3013 RMK A01
KATP 130715Z AUTO 03007KT 10SM 17/09 A3014 RMK A01
KATP 130655Z AUTO 34009KT 10SM BKN032 17/08 A3014 RMK A01
KATP 130635Z AUTO 33009KT 10SM BKN031 17/09 A3014 RMK A01
KATP 130615Z AUTO 32011KT 10SM BKN030 BKN034 17/09 A3013 RMK A01
KATP 130555Z AUTO 34012KT 10SM FEW036 17/08 A3014 RMK A01
KATP 130535Z AUTO 34013KT 10SM FEW033 17/08 A3014 RMK A01
KATP 130515Z AUTO 35010KT SCT032 17/08 A3014 RMK A01
KATP 130455Z AUTO 33013KT 10SM SCT034 17/08 A3015 RMK A01
KATP 130435Z AUTO 33014KT 10SM BKN033 18/08 A3015 RMK A01
KATP 130415Z AUTO 33013KT 10SM BKN033 18/08 A3015 RMK A01
KATP 130355Z AUTO 34014KT 10SM SCT034 17/08 A3015 RMK A01
KATP 130335Z AUTO 36014KT 10SM SCT034 17/07 A3015 RMK A01
KATP 130315Z AUTO 33015KT 10SM FEW034 18/08 A3015 RMK A01
KATP 130255Z AUTO 33014KT 10SM FEW034 18/07 A3015 RMK A01
KATP 130235Z AUTO 32014G19KT 10SM SCT036 SCT042 18/07 A3015 RMK A01
KATP 130020Z AUTO 33012KT 10SM FEW030 19/07 A3013 RMK A01
KATP 130015Z AUTO 33013KT 10SM FEW030 19/07 A3013 RMK A01
KATP 122355Z AUTO 31013KT 10SM SCT029 SCT033 19/07 A3012 RMK A01
KATP 122335Z AUTO 32013KT 10SM CLR 19/08 A3012 RMK A01
KATP 122315Z AUTO 33014KT 10SM CLR 19/08 A3011 RMK A01
KATP 122255Z AUTO 32014KT 10SM CLR 19/09 A3011 RMK A01
KATP 122235Z AUTO 34011KT 10SM CLR 19/09 A3011 RMK A01
KATP 122215Z AUTO 33014KT 10SM CLR 19/08 A3010 RMK A01
KATP 122155Z AUTO 34012KT 10SM CLR 19/07 A3010 RMK A01
KATP 122135Z AUTO 34013KT 10SM CLR 19/07 A3010 RMK A01
KATP 122115Z AUTO 32012G17KT 10SM CLR 20/06 A3010 RMK A01
KATP 122055Z AUTO 35011KT 10SM CLR 20/07 A3009 RMK A01
KATP 122035Z AUTO 33014KT 10SM CLR 19/09 A3010 RMK A01
KATP 122015Z AUTO 34016KT 10SM CLR 19/09 A3010 RMK A01
KATP 121955Z AUTO 34017KT 10SM CLR 19/09 A3010 RMK A01
KATP 121935Z AUTO 34018KT 10SM CLR 20/09 A3010 RMK A01
KATP 121915Z AUTO 33017KT 10SM CLR 21/08 A3010 RMK A01
KATP 121855Z AUTO 33017KT 10SM CLR 21/09 A3010 RMK A01
KATP 121835Z AUTO 32018KT 9SM CLR 21/12 A3011 RMK A01
KATP 121815Z AUTO 32020KT 9SM CLR 21/13 A3012 RMK A01
KATP 121755Z AUTO 31020KT 9SM FEW046 21/14 A3013 RMK A01
KATP 121735Z AUTO 32022KT 10SM SCT046 23/13 A3014 RMK A01
KATP 121715Z AUTO 30022KT 10SM CLR 23/12 A3015 RMK A01
KATP 121655Z AUTO 29019KT 10SM CLR 23/12 A3015 RMK A01
KATP 121635Z AUTO 29019KT 10SM CLR 23/12 A3015 RMK A01
KATP 121615Z AUTO 30022KT 10SM CLR 23/12 A3016 RMK A01
KATP 121555Z AUTO 30023KT 10SM CLR 23/11 A3016 RMK A01
KATP 121535Z AUTO 30020G25KT 10SM FEW043 FEW050 23/12 A3017 RMK A01
KATP 121515Z AUTO 30024G29KT 10SM SCT040 SCT046 SCT050 23/13 A3016 RMK A01
KATP 121455Z AUTO 30021G26KT 10SM CLR 23/13 A3016 RMK A01
KATP 121435Z AUTO 29024G29KT 10SM FEW037 22/13 A3016 RMK A01
KATP 121415Z AUTO 29023KT 10SM FEW037 23/14 A3016 RMK A01
KATP 121355Z AUTO 29022KT 10SM CLR 22/13 A3015 RMK A01
KATP 121335Z AUTO 29021KT 10SM CLR 22/13 A3015 RMK A01
KATP 121315Z AUTO 29021KT 10SM CLR 22/13 A3014 RMK A01
KATP 121255Z AUTO 29020G25KT 10SM CLR 22/13 A3014 RMK A01
KATP 121235Z AUTO 29022KT 10SM CLR 22/12 A3014 RMK A01
KATP 121215Z AUTO 29021KT 10SM CLR 22/12 A3014 RMK A01
KATP 121155Z AUTO 29021KT 10SM CLR 22/12 A3013 RMK A01
KATP 121135Z AUTO 28020KT 10SM CLR 21/12 A3013 RMK A01
KATP 121115Z AUTO 28020KT 10SM CLR 21/12 A3012 RMK A01
KATP 121055Z AUTO 28022KT 10SM FEW020 FEW031 21/12 A3013 RMK A01
KATP 121035Z AUTO 29018KT 10SM SCT021 SCT027 SCT034 21/12 A3012 RMK A01
KATP 121015Z AUTO 28019KT 10SM BKN021 BKN027 21/12 A3013 RMK A01
KATP 120955Z AUTO 27019KT 10SM BKN021 BKN036 21/12 A3013 RMK A01
KATP 120935Z AUTO 28018KT 10SM SCT021 SCT026 BKN037 21/12 A3014 RMK A01
KATP 120915Z AUTO 28018KT 10SM SCT021 BKN028 BKN036 21/11 A3014 RMK A01
KATP 120855Z AUTO 29017KT 10SM SCT022 BKN030 BKN037 21/12 A3015 RMK A01
KATP 120835Z AUTO 27019KT 10SM BKN022 BKN031 BKN038 21/12 A3015 RMK A01
KATP 120815Z AUTO 29016KT 10SM BKN021 OVC027 20/11 A3015 RMK A01
KATP 120755Z AUTO 28017G22KT 10SM BKN020 OVC028 20/11 A3015 RMK A01
KATP 120735Z AUTO 28017KT 10SM OVC020 20/12 A3016 RMK A01
KATP 120715Z AUTO 28014G20KT 10SM OVC020 20/12 A3016 RMK A01
KATP 120655Z AUTO 28016KT 10SM BKN021 OVC026 20/11 A3016 RMK A01
KATP 120635Z AUTO 28017KT 10SM BKN023 BKN028 OVC032 20/11 A3017 RMK A01
KATP 120615Z AUTO 28014KT 10SM BKN022 OVC028 20/12 A3017 RMK A01
KATP 120555Z AUTO 28014KT 10SM BKN022 OVC028 20/11 A3017 RMK A01
KATP 120535Z AUTO 28014KT 10SM BKN023 OVC030 20/11 A3017 RMK A01
KATP 120515Z AUTO 29011G17KT 10SM BKN023 BKN031 20/11 A3018 RMK A01
KATP 120455Z AUTO 27015KT 10SM FEW019 BKN024 BKN031 20/11 A3019 RMK A01
KATP 120435Z AUTO 28013KT 10SM SCT021 BKN026 BKN030 20/11 A3019 RMK A01
KATP 120415Z AUTO 27012G17KT 10SM SCT021 BKN029 OVC036 20/11 A3020 RMK A01
KATP 120355Z AUTO 28014KT 10SM FEW022 SCT027 BKN033 20/11 A3020 RMK A01
KATP 120335Z AUTO 25009G15KT 10SM FEW024 BKN030 BKN034 20/11 A3020 RMK A01
KATP 120315Z AUTO 25007G16KT 10SM FEW021 SCT026 BKN031 20/11 A3021 RMK A01
KATP 120250Z AUTO 27010KT 10SM FEW021 BKN028 BKN032 20/11 A3021 RMK A01
KATP 120235Z AUTO 26007G15KT 220V280 10SM SCT021 SCT029 BKN034 20/11 A3020 RMK A01
KATP 120215Z AUTO 27011KT 10SM FEW022 BKN030 BKN034 20/11 A3021 RMK A01
KATP 120155Z AUTO 26009KT 10SM SCT023 BKN030 20/11 A3020 RMK A01
KATP 120135Z AUTO 27007KT 190V320 10SM SCT025 BKN031 20/10 A3020 RMK A01
KATP 120115Z AUTO 27009KT 10SM SCT022 BKN030 20/10 A3021 RMK A01
KATP 120055Z AUTO 29009G14KT 10SM SCT022 BKN028 BKN033 20/10 A3021 RMK A01
KATP 120035Z AUTO 28012KT 10SM FEW022 BKN028 BKN034 20/11 A3021 RMK A01
KATP 120015Z AUTO 30010KT 10SM FEW020 SCT026 BKN032 20/10 A3021 RMK A01
KATP 112355Z AUTO 29007KT 10SM FEW026 BKN037 20/11 A3020 RMK A01
KATP 112335Z AUTO 28012KT 10SM FEW025 FEW030 BKN038 20/10 A3021 RMK A01
KATP 112315Z AUTO 30010KT 10SM BKN038 20/11 A3021 RMK A01
KATP 112255Z AUTO 30011KT 10SM SCT036 20/11 A3021 RMK A01
KATP 112235Z AUTO 29013KT 10SM SCT037 20/11 A3021 RMK A01
KATP 112215Z AUTO 29011G17KT 10SM FEW035 20/11 A3021 RMK A01
KATP 112155Z AUTO 28012KT 10SM FEW035 20/11 A3021 RMK A01
KATP 112135Z AUTO 30010G15KT 10SM CLR 20/12 A3020 RMK A01